Time;durP1;ratioP1;P1;durP2;ratioP2;P2;SDS_P1;SDS_P2;PMS_P1;PMS_P2;Temp;Humidity;BMP_temperature;BMP_pressure;BME280_temperature;BME280_humidity;BME280_pressure;Samples;Min_cycle;Max_cycle;Signal;HPM_P1;HPM_P2
2022/12/28 00:00:06;;;;;;;;;;;6.30;99.90;;;;;;8384475;28;20322;-75
2022/12/28 00:04:09;;;;;;;;;;;6.30;99.90;;;;;;8375825;28;19933;-75
2022/12/28 00:08:10;;;;;;;;;;;6.30;99.90;;;;;;8400960;28;20007;-75
2022/12/28 00:12:12;;;;;;;;;;;6.30;99.90;;;;;;8395569;28;19931;-75
2022/12/28 00:16:22;;;;;;;;;;;6.30;99.90;;;;;;8395336;28;19934;-75
2022/12/28 00:20:24;;;;;;;;;;;6.30;99.90;;;;;;8389326;28;22056;-75
2022/12/28 00:24:26;;;;;;;;;;;6.30;99.90;;;;;;8390248;28;19951;-75
2022/12/28 00:28:28;;;;;;;;;;;6.40;99.90;;;;;;8382324;28;19925;-75
2022/12/28 00:32:29;;;;;;;;;;;6.40;99.90;;;;;;8387178;28;20503;-75
2022/12/28 00:36:31;;;;;;;;;;;6.40;99.90;;;;;;8401145;28;19932;-76
2022/12/28 00:51:26;;;;;;;;;;;6.50;99.90;;;;;;8393038;28;19935;-75
2022/12/28 00:55:27;;;;;;;;;;;6.50;99.90;;;;;;8392558;28;19931;-75
2022/12/28 00:59:29;;;;;;;;;;;6.60;99.90;;;;;;8391791;28;19924;-75
2022/12/28 01:03:31;;;;;;;;;;;6.60;99.90;;;;;;8399938;28;19966;-75
2022/12/28 01:07:32;;;;;;;;;;;6.70;99.90;;;;;;8390743;28;20406;-75
2022/12/28 01:11:34;;;;;;;;;;;6.70;99.90;;;;;;8395638;28;20401;-75
2022/12/28 01:15:36;;;;;;;;;;;6.80;99.90;;;;;;8396636;28;20039;-75
2022/12/28 01:19:38;;;;;;;;;;;6.80;99.90;;;;;;8386578;28;20399;-76
2022/12/28 01:23:40;;;;;;;;;;;6.80;99.90;;;;;;8394950;28;19975;-75
2022/12/28 01:27:41;;;;;;;;;;;6.90;99.90;;;;;;8401272;28;19924;-76
2022/12/28 01:31:43;;;;;;;;;;;6.90;99.90;;;;;;8400665;28;19940;-76
2022/12/28 01:35:45;;;;;;;;;;;7.00;99.90;;;;;;8395394;28;20314;-75
2022/12/28 01:39:46;;;;;;;;;;;7.00;99.90;;;;;;8386979;28;19990;-76
2022/12/28 01:43:51;;;;;;;;;;;7.10;99.90;;;;;;8389052;28;19996;-76
2022/12/28 01:47:53;;;;;;;;;;;7.10;99.90;;;;;;8369272;28;20276;-76
2022/12/28 01:51:59;;;;;;;;;;;7.10;99.90;;;;;;8389770;28;20343;-76
2022/12/28 01:56:01;;;;;;;;;;;7.10;99.90;;;;;;8384065;28;20432;-76
2022/12/28 02:00:04;;;;;;;;;;;7.10;99.90;;;;;;8375120;28;20403;-75
2022/12/28 02:04:06;;;;;;;;;;;7.00;99.90;;;;;;8382095;28;20510;-75
2022/12/28 02:08:17;;;;;;;;;;;7.00;99.90;;;;;;8394699;28;20368;-75
2022/12/28 02:12:19;;;;;;;;;;;7.00;99.90;;;;;;8387433;28;19972;-76
2022/12/28 02:16:20;;;;;;;;;;;7.00;99.90;;;;;;8391930;28;20428;-75
2022/12/28 02:20:24;;;;;;;;;;;7.00;99.90;;;;;;8396224;28;19929;-75
2022/12/28 02:24:45;;;;;;;;;;;7.00;99.90;;;;;;8393112;28;19931;-76
2022/12/28 02:28:58;;;;;;;;;;;7.00;99.90;;;;;;8385993;28;19955;-75
2022/12/28 02:33:00;;;;;;;;;;;7.00;99.90;;;;;;8371567;28;19931;-75
2022/12/28 02:37:05;;;;;;;;;;;7.00;99.90;;;;;;8390214;28;20004;-75
2022/12/28 02:41:12;;;;;;;;;;;7.00;99.90;;;;;;8386592;28;19924;-75
2022/12/28 02:50:07;;;;;;;;;;;7.00;99.90;;;;;;8396800;28;19951;-76
2022/12/28 02:56:06;;;;;;;;;;;7.00;99.90;;;;;;8404093;28;19930;-76
2022/12/28 02:58:51;;;;;;;;;;;7.00;99.90;;;;;;8391724;28;19925;-75
2022/12/28 03:03:12;;;;;;;;;;;7.10;99.90;;;;;;8400283;28;19955;-76
2022/12/28 03:11:57;;;;;;;;;;;7.10;99.90;;;;;;8375449;28;20427;-75
2022/12/28 03:16:02;;;;;;;;;;;7.20;99.90;;;;;;8370855;28;20383;-76
2022/12/28 03:33:10;;;;;;;;;;;7.20;99.90;;;;;;8387292;28;19928;-76
2022/12/28 03:37:11;;;;;;;;;;;7.30;99.90;;;;;;8398383;28;19933;-76
2022/12/28 03:41:14;;;;;;;;;;;7.30;99.90;;;;;;8366388;28;19970;-76
2022/12/28 03:45:22;;;;;;;;;;;7.30;99.90;;;;;;8390751;28;19989;-76
2022/12/28 03:49:44;;;;;;;;;;;7.30;99.90;;;;;;8402563;28;20327;-76
2022/12/28 03:53:46;;;;;;;;;;;7.40;99.90;;;;;;8401252;28;19924;-76
2022/12/28 03:57:48;;;;;;;;;;;7.40;99.90;;;;;;8389638;28;20280;-77
2022/12/28 04:01:50;;;;;;;;;;;7.50;99.90;;;;;;8400721;28;20314;-76
2022/12/28 04:05:51;;;;;;;;;;;7.50;99.90;;;;;;8395797;28;19939;-76
2022/12/28 04:09:53;;;;;;;;;;;7.60;99.90;;;;;;8395310;28;20291;-76
2022/12/28 04:13:55;;;;;;;;;;;7.60;99.90;;;;;;8398854;28;19960;-76
2022/12/28 04:17:58;;;;;;;;;;;7.70;99.90;;;;;;8381780;28;19943;-76
2022/12/28 04:22:00;;;;;;;;;;;7.80;99.90;;;;;;8399117;28;19929;-76
2022/12/28 04:26:01;;;;;;;;;;;7.80;99.90;;;;;;8377142;28;19932;-76
2022/12/28 04:30:03;;;;;;;;;;;7.90;99.90;;;;;;8387282;28;20197;-76
2022/12/28 04:34:06;;;;;;;;;;;7.90;99.90;;;;;;8375981;28;20020;-76
2022/12/28 04:38:07;;;;;;;;;;;7.90;99.90;;;;;;8397280;28;19928;-76
2022/12/28 04:42:09;;;;;;;;;;;8.00;99.90;;;;;;8383510;28;19962;-76
2022/12/28 04:46:12;;;;;;;;;;;8.00;99.90;;;;;;8397388;28;19931;-76
2022/12/28 04:50:13;;;;;;;;;;;8.00;99.90;;;;;;8387041;28;19935;-76
2022/12/28 04:54:15;;;;;;;;;;;8.00;99.90;;;;;;8389221;28;19924;-76
2022/12/28 04:58:17;;;;;;;;;;;8.10;99.90;;;;;;8385631;28;19924;-76
2022/12/28 05:02:18;;;;;;;;;;;8.10;99.90;;;;;;8378317;28;20315;-76
2022/12/28 05:06:21;;;;;;;;;;;8.10;99.90;;;;;;8398970;28;19924;-76
2022/12/28 05:10:23;;;;;;;;;;;8.10;99.90;;;;;;8398696;28;20291;-76
2022/12/28 05:14:24;;;;;;;;;;;8.20;99.90;;;;;;8385822;28;19966;-76
2022/12/28 05:18:26;;;;;;;;;;;8.20;99.90;;;;;;8363378;28;19928;-76
2022/12/28 05:22:28;;;;;;;;;;;8.20;99.90;;;;;;8388868;28;19932;-77
2022/12/28 05:26:29;;;;;;;;;;;8.30;99.90;;;;;;8394679;28;19932;-76
2022/12/28 05:30:31;;;;;;;;;;;8.30;99.90;;;;;;8393247;28;19932;-75
2022/12/28 05:34:33;;;;;;;;;;;8.30;99.90;;;;;;8367913;28;19975;-76
2022/12/28 05:38:35;;;;;;;;;;;8.40;99.90;;;;;;8394257;28;20027;-76
2022/12/28 05:42:36;;;;;;;;;;;8.40;99.90;;;;;;8371200;28;19928;-76
2022/12/28 05:46:38;;;;;;;;;;;8.50;99.90;;;;;;8404303;28;19968;-76
2022/12/28 05:50:40;;;;;;;;;;;8.50;99.90;;;;;;8402838;28;19931;-76
2022/12/28 05:54:43;;;;;;;;;;;8.50;99.90;;;;;;8364680;28;19925;-76
2022/12/28 05:58:45;;;;;;;;;;;8.50;99.90;;;;;;8384246;28;20007;-76
2022/12/28 06:02:47;;;;;;;;;;;8.50;99.90;;;;;;8402644;28;19928;-76
2022/12/28 06:06:49;;;;;;;;;;;8.50;99.90;;;;;;8398782;28;20380;-76
2022/12/28 06:10:50;;;;;;;;;;;8.60;99.90;;;;;;8388972;28;19967;-76
2022/12/28 06:14:52;;;;;;;;;;;8.60;99.90;;;;;;8394175;28;19928;-76
2022/12/28 06:18:54;;;;;;;;;;;8.70;99.90;;;;;;8390294;28;19964;-75
2022/12/28 06:22:56;;;;;;;;;;;8.70;99.90;;;;;;8389863;28;19931;-76
2022/12/28 06:26:58;;;;;;;;;;;8.70;99.90;;;;;;8403403;28;20547;-76
2022/12/28 06:31:01;;;;;;;;;;;8.80;99.90;;;;;;8396098;28;19924;-76
2022/12/28 06:35:03;;;;;;;;;;;8.90;99.90;;;;;;8392712;28;20036;-76
2022/12/28 06:39:05;;;;;;;;;;;8.90;99.90;;;;;;8379202;28;20394;-76
2022/12/28 06:43:07;;;;;;;;;;;9.00;99.90;;;;;;8380469;28;19928;-76
2022/12/28 06:47:09;;;;;;;;;;;9.10;99.90;;;;;;8397612;28;19939;-77
2022/12/28 06:51:15;;;;;;;;;;;9.10;99.90;;;;;;8388925;28;19924;-76
2022/12/28 06:55:16;;;;;;;;;;;9.20;99.90;;;;;;8383467;28;20414;-75
2022/12/28 06:59:18;;;;;;;;;;;9.30;99.90;;;;;;8399480;28;20484;-76
2022/12/28 07:03:20;;;;;;;;;;;9.30;99.90;;;;;;8394969;28;19942;-76
2022/12/28 07:07:22;;;;;;;;;;;9.30;99.90;;;;;;8406871;28;19924;-76
2022/12/28 07:11:23;;;;;;;;;;;9.40;99.90;;;;;;8401905;28;19928;-76
2022/12/28 07:15:25;;;;;;;;;;;9.40;99.90;;;;;;8373939;28;20019;-76
2022/12/28 07:19:27;;;;;;;;;;;9.40;99.90;;;;;;8389817;28;20130;-76
2022/12/28 07:23:30;;;;;;;;;;;9.50;99.90;;;;;;8403312;28;19924;-76
2022/12/28 07:27:33;;;;;;;;;;;9.50;99.90;;;;;;8372588;28;19932;-76
2022/12/28 07:31:36;;;;;;;;;;;9.50;99.90;;;;;;8394524;28;19932;-76
2022/12/28 07:35:45;;;;;;;;;;;9.50;99.90;;;;;;8398295;28;20290;-76
2022/12/28 07:39:46;;;;;;;;;;;9.50;99.90;;;;;;8401349;28;20363;-76
2022/12/28 07:43:48;;;;;;;;;;;9.60;99.90;;;;;;8402232;28;19971;-77
2022/12/28 07:47:50;;;;;;;;;;;9.60;99.90;;;;;;8393248;28;19991;-75
2022/12/28 07:51:52;;;;;;;;;;;9.60;99.90;;;;;;8405109;28;19962;-76
2022/12/28 07:55:55;;;;;;;;;;;9.70;99.90;;;;;;8392849;28;19932;-76
2022/12/28 07:59:56;;;;;;;;;;;9.70;99.90;;;;;;8397197;28;19935;-76
2022/12/28 08:03:59;;;;;;;;;;;9.70;99.90;;;;;;8399882;28;19946;-76
2022/12/28 08:08:01;;;;;;;;;;;9.70;99.90;;;;;;8402996;28;20033;-76
2022/12/28 08:12:04;;;;;;;;;;;9.80;99.90;;;;;;8412940;28;19935;-77
2022/12/28 08:16:06;;;;;;;;;;;9.70;99.90;;;;;;8395086;28;19928;-76
2022/12/28 08:20:08;;;;;;;;;;;9.70;99.90;;;;;;8400958;28;20343;-76
2022/12/28 08:24:14;;;;;;;;;;;9.70;99.90;;;;;;8407153;28;20007;-76
2022/12/28 08:28:15;;;;;;;;;;;9.70;99.90;;;;;;8384117;28;20380;-77
2022/12/28 08:32:17;;;;;;;;;;;9.70;99.90;;;;;;8386667;28;19924;-75
2022/12/28 08:36:19;;;;;;;;;;;9.80;99.90;;;;;;8360973;28;19934;-76
2022/12/28 08:40:21;;;;;;;;;;;9.80;99.90;;;;;;8382319;28;19947;-77
2022/12/28 08:44:23;;;;;;;;;;;9.70;99.90;;;;;;8389736;28;20379;-76
2022/12/28 08:48:25;;;;;;;;;;;9.70;99.90;;;;;;8385766;28;19986;-77
2022/12/28 08:52:26;;;;;;;;;;;9.60;99.90;;;;;;8388944;28;20328;-76
2022/12/28 08:56:29;;;;;;;;;;;9.50;99.90;;;;;;8405647;28;19940;-76
2022/12/28 09:00:31;;;;;;;;;;;9.60;99.90;;;;;;8400891;28;19933;-77
2022/12/28 09:04:33;;;;;;;;;;;9.60;99.90;;;;;;8407201;28;21954;-76
2022/12/28 09:08:35;;;;;;;;;;;9.70;99.90;;;;;;8392893;28;20273;-76
2022/12/28 09:12:37;;;;;;;;;;;9.70;99.90;;;;;;8403714;28;19936;-76
2022/12/28 09:16:39;;;;;;;;;;;9.80;99.90;;;;;;8398897;28;19974;-76
2022/12/28 09:20:40;;;;;;;;;;;9.80;99.90;;;;;;8396034;28;19935;-76
2022/12/28 09:24:48;;;;;;;;;;;9.80;99.90;;;;;;8387589;28;19929;-76
2022/12/28 09:28:53;;;;;;;;;;;9.80;99.90;;;;;;8387954;28;20023;-75
2022/12/28 09:33:57;;;;;;;;;;;9.70;99.90;;;;;;8380399;28;19947;-76
2022/12/28 09:37:16;;;;;;;;;;;9.60;99.90;;;;;;8393374;28;19932;-71
2022/12/28 09:41:21;;;;;;;;;;;9.50;99.90;;;;;;8379011;28;20376;-72
2022/12/28 09:45:24;;;;;;;;;;;9.50;99.90;;;;;;8388299;28;20295;-72
2022/12/28 09:49:33;;;;;;;;;;;9.50;99.90;;;;;;8386782;28;19924;-72
2022/12/28 09:53:35;;;;;;;;;;;9.40;99.90;;;;;;8392558;28;20019;-72
2022/12/28 09:57:39;;;;;;;;;;;9.40;99.90;;;;;;8372198;28;19925;-71
2022/12/28 10:01:41;;;;;;;;;;;9.40;99.90;;;;;;8383462;28;19929;-71
2022/12/28 10:05:43;;;;;;;;;;;9.50;99.90;;;;;;8396567;28;20372;-72
2022/12/28 10:09:46;;;;;;;;;;;9.50;99.90;;;;;;8386969;28;19924;-71
2022/12/28 10:13:51;;;;;;;;;;;9.50;99.90;;;;;;8401259;28;19925;-71
2022/12/28 10:17:55;;;;;;;;;;;9.50;99.90;;;;;;8390206;28;19928;-71
2022/12/28 10:21:59;;;;;;;;;;;9.60;99.90;;;;;;8383212;28;19931;-71
2022/12/28 10:26:03;;;;;;;;;;;9.60;99.90;;;;;;8382931;28;19968;-71
2022/12/28 10:30:13;;;;;;;;;;;9.50;99.90;;;;;;8391920;28;19929;-72
2022/12/28 10:34:19;;;;;;;;;;;9.50;99.90;;;;;;8371062;28;19931;-71
2022/12/28 10:38:22;;;;;;;;;;;9.40;99.90;;;;;;8388196;28;20488;-71
2022/12/28 10:42:27;;;;;;;;;;;9.40;99.90;;;;;;8373280;28;19971;-72
2022/12/28 10:46:28;;;;;;;;;;;9.30;99.90;;;;;;8370673;28;19924;-72
2022/12/28 10:50:39;;;;;;;;;;;9.30;99.90;;;;;;8367922;28;19929;-71
2022/12/28 10:54:41;;;;;;;;;;;9.30;99.90;;;;;;8379258;28;19929;-72
2022/12/28 10:58:44;;;;;;;;;;;9.30;99.90;;;;;;8394324;28;19987;-72
2022/12/28 11:02:45;;;;;;;;;;;9.30;99.90;;;;;;8384865;28;19931;-71
2022/12/28 11:06:50;;;;;;;;;;;9.30;99.90;;;;;;8396889;28;19928;-72
2022/12/28 11:10:55;;;;;;;;;;;9.30;99.90;;;;;;8395059;28;19924;-72
2022/12/28 11:14:57;;;;;;;;;;;9.30;99.90;;;;;;8394679;28;19924;-72
2022/12/28 11:18:59;;;;;;;;;;;9.30;99.90;;;;;;8395904;28;19939;-72
2022/12/28 11:23:04;;;;;;;;;;;9.30;99.90;;;;;;8394843;28;19975;-72
2022/12/28 11:27:09;;;;;;;;;;;9.30;99.90;;;;;;8376176;28;20287;-72
2022/12/28 11:31:16;;;;;;;;;;;9.20;99.90;;;;;;8412564;28;19976;-72
2022/12/28 11:35:20;;;;;;;;;;;9.20;99.90;;;;;;8382824;28;19948;-71
2022/12/28 11:39:25;;;;;;;;;;;9.20;99.90;;;;;;8390867;28;19939;-72
2022/12/28 11:43:29;;;;;;;;;;;9.20;99.90;;;;;;8377082;28;19960;-72
2022/12/28 11:47:32;;;;;;;;;;;9.20;99.90;;;;;;8401152;28;19931;-72
2022/12/28 11:51:35;;;;;;;;;;;9.20;99.90;;;;;;8394378;28;19978;-71
2022/12/28 11:55:41;;;;;;;;;;;9.20;99.90;;;;;;8395437;28;19928;-71
2022/12/28 11:59:43;;;;;;;;;;;9.20;99.90;;;;;;8395584;28;19924;-71
2022/12/28 12:03:57;;;;;;;;;;;9.20;99.90;;;;;;8413345;28;20007;-72
2022/12/28 12:07:58;;;;;;;;;;;9.20;99.90;;;;;;8390370;28;19932;-72
2022/12/28 12:12:02;;;;;;;;;;;9.20;99.90;;;;;;8395417;28;20020;-72
2022/12/28 12:16:07;;;;;;;;;;;9.20;99.90;;;;;;8390828;28;19932;-71
2022/12/28 12:20:31;;;;;;;;;;;9.20;99.90;;;;;;8375327;28;19928;-71
2022/12/28 12:24:43;;;;;;;;;;;9.20;99.90;;;;;;8372192;28;19924;-71
2022/12/28 12:28:47;;;;;;;;;;;9.20;99.90;;;;;;8391821;28;19983;-72
2022/12/28 12:33:01;;;;;;;;;;;9.20;99.90;;;;;;8380903;28;20777;-71
2022/12/28 12:37:08;;;;;;;;;;;9.20;99.90;;;;;;8387496;28;19932;-72
2022/12/28 12:41:24;;;;;;;;;;;9.20;99.90;;;;;;8387442;28;19929;-71
2022/12/28 12:45:32;;;;;;;;;;;9.20;99.90;;;;;;8373024;28;20003;-71
2022/12/28 12:49:52;;;;;;;;;;;9.20;99.90;;;;;;8375203;28;19971;-72
2022/12/28 12:53:53;;;;;;;;;;;9.20;99.90;;;;;;8394215;28;20026;-71
2022/12/28 12:57:59;;;;;;;;;;;9.20;99.90;;;;;;8390034;28;20323;-71
2022/12/28 13:02:24;;;;;;;;;;;9.20;99.90;;;;;;8408572;28;19970;-71
2022/12/28 13:06:26;;;;;;;;;;;9.20;99.90;;;;;;8354663;28;19924;-71
2022/12/28 13:10:33;;;;;;;;;;;9.20;99.90;;;;;;8395544;28;20011;-71
2022/12/28 13:14:35;;;;;;;;;;;9.20;99.90;;;;;;8393312;28;20303;-71
2022/12/28 13:18:36;;;;;;;;;;;9.20;99.90;;;;;;8390642;28;20371;-71
2022/12/28 13:22:47;;;;;;;;;;;9.20;99.90;;;;;;8365240;28;19979;-71
2022/12/28 13:26:49;;;;;;;;;;;9.20;99.90;;;;;;8393496;28;20367;-71
2022/12/28 13:30:56;;;;;;;;;;;9.30;99.90;;;;;;8392020;28;19931;-71
2022/12/28 13:34:57;;;;;;;;;;;9.30;99.90;;;;;;8382677;28;20269;-71
2022/12/28 13:39:04;;;;;;;;;;;9.30;99.90;;;;;;8393897;28;20313;-71
2022/12/28 13:43:23;;;;;;;;;;;9.30;99.90;;;;;;8370614;28;19925;-71
2022/12/28 13:47:33;;;;;;;;;;;9.30;99.90;;;;;;8386078;28;20283;-71
2022/12/28 13:51:37;;;;;;;;;;;9.40;99.90;;;;;;8395022;28;19924;-71
2022/12/28 13:55:50;;;;;;;;;;;9.40;99.90;;;;;;8393061;28;19928;-71
2022/12/28 13:59:53;;;;;;;;;;;9.40;99.90;;;;;;8393782;28;20377;-71
2022/12/28 14:03:58;;;;;;;;;;;9.50;99.90;;;;;;8351681;28;20387;-71
2022/12/28 14:08:09;;;;;;;;;;;9.50;99.90;;;;;;8388410;28;20054;-70
2022/12/28 14:12:12;;;;;;;;;;;9.60;99.90;;;;;;8393009;28;19925;-71
2022/12/28 14:16:13;;;;;;;;;;;9.60;99.90;;;;;;8392005;28;19924;-71
2022/12/28 14:20:17;;;;;;;;;;;9.60;99.90;;;;;;8375152;28;21345;-71
2022/12/28 14:24:19;;;;;;;;;;;9.70;99.90;;;;;;8390128;28;20015;-71
2022/12/28 14:28:23;;;;;;;;;;;9.70;99.90;;;;;;8385018;28;20280;-71
2022/12/28 14:32:25;;;;;;;;;;;9.70;99.90;;;;;;8386699;28;20304;-71
2022/12/28 14:36:29;;;;;;;;;;;9.80;99.90;;;;;;8399637;28;20295;-71
2022/12/28 14:40:32;;;;;;;;;;;9.80;99.90;;;;;;8385046;28;20019;-71
2022/12/28 14:44:38;;;;;;;;;;;9.80;99.90;;;;;;8387936;28;19972;-71
2022/12/28 14:48:41;;;;;;;;;;;9.80;99.90;;;;;;8378952;28;19929;-71
2022/12/28 14:52:45;;;;;;;;;;;9.80;99.90;;;;;;8400483;28;19924;-71
2022/12/28 14:56:49;;;;;;;;;;;9.80;99.90;;;;;;8395725;28;19924;-71
2022/12/28 15:00:56;;;;;;;;;;;9.80;99.90;;;;;;8397863;28;19924;-71
2022/12/28 15:04:59;;;;;;;;;;;9.80;99.90;;;;;;8379715;28;20007;-71
2022/12/28 15:09:05;;;;;;;;;;;9.80;99.90;;;;;;8385907;28;19931;-71
2022/12/28 15:13:06;;;;;;;;;;;9.80;99.90;;;;;;8380320;28;20363;-71
2022/12/28 15:17:08;;;;;;;;;;;9.80;99.90;;;;;;8378212;28;19928;-71
2022/12/28 15:21:11;;;;;;;;;;;9.80;99.90;;;;;;8385886;28;20399;-71
2022/12/28 15:25:13;;;;;;;;;;;9.80;99.90;;;;;;8398573;28;19924;-71
2022/12/28 15:29:15;;;;;;;;;;;9.80;99.90;;;;;;8367875;28;19924;-71
2022/12/28 15:33:33;;;;;;;;;;;9.80;99.90;;;;;;8393214;28;19963;-71
2022/12/28 15:37:35;;;;;;;;;;;9.80;99.90;;;;;;8397920;28;20387;-71
2022/12/28 15:41:45;;;;;;;;;;;9.80;99.90;;;;;;8382044;28;19935;-71
2022/12/28 15:45:57;;;;;;;;;;;9.80;99.90;;;;;;8396708;28;20048;-71
2022/12/28 15:50:01;;;;;;;;;;;9.80;99.90;;;;;;8384614;28;19924;-71
2022/12/28 15:54:03;;;;;;;;;;;9.80;99.90;;;;;;8394279;28;19924;-71
2022/12/28 15:58:05;;;;;;;;;;;9.70;99.90;;;;;;8380749;28;19929;-71
2022/12/28 16:02:08;;;;;;;;;;;9.60;99.90;;;;;;8364948;28;19931;-71
2022/12/28 16:06:10;;;;;;;;;;;9.50;99.90;;;;;;8359187;28;19932;-71
2022/12/28 16:10:11;;;;;;;;;;;9.50;99.90;;;;;;8359710;28;19960;-71
2022/12/28 16:14:14;;;;;;;;;;;9.40;99.90;;;;;;8357437;28;20018;-71
2022/12/28 16:18:16;;;;;;;;;;;9.40;99.90;;;;;;8349140;28;19929;-71
2022/12/28 16:22:18;;;;;;;;;;;9.40;99.90;;;;;;8355780;28;19931;-71
2022/12/28 16:26:20;;;;;;;;;;;9.30;99.90;;;;;;8351880;28;19967;-71
2022/12/28 16:35:28;;;;;;;;;;;9.20;99.90;;;;;;8354096;28;19927;-71
2022/12/28 16:39:29;;;;;;;;;;;9.20;99.90;;;;;;8353069;28;20672;-71
2022/12/28 16:43:31;;;;;;;;;;;9.20;99.90;;;;;;8356138;28;20011;-71
2022/12/28 16:47:33;;;;;;;;;;;9.20;99.90;;;;;;8353702;28;19960;-71
2022/12/28 16:51:41;;;;;;;;;;;9.20;99.90;;;;;;8354690;28;20359;-71
2022/12/28 16:55:42;;;;;;;;;;;9.20;99.90;;;;;;8354409;28;19960;-71
2022/12/28 16:59:44;;;;;;;;;;;9.10;99.90;;;;;;8352765;28;19967;-71
2022/12/28 17:03:46;;;;;;;;;;;9.10;99.90;;;;;;8350375;28;19967;-72
2022/12/28 17:07:47;;;;;;;;;;;9.10;99.90;;;;;;8335324;28;19929;-71
2022/12/28 17:11:49;;;;;;;;;;;9.10;99.90;;;;;;8352149;28;20703;-71
2022/12/28 17:15:52;;;;;;;;;;;9.10;99.90;;;;;;8361001;28;19932;-71
2022/12/28 17:19:53;;;;;;;;;;;9.10;99.90;;;;;;8359349;28;20718;-71
2022/12/28 17:23:55;;;;;;;;;;;9.10;99.90;;;;;;8361944;28;19928;-72
2022/12/28 17:27:57;;;;;;;;;;;9.00;99.90;;;;;;8368792;28;19964;-71
2022/12/28 17:31:59;;;;;;;;;;;9.10;99.90;;;;;;8359122;28;20269;-72
2022/12/28 17:36:01;;;;;;;;;;;9.00;99.90;;;;;;8354331;28;19929;-72
2022/12/28 17:40:03;;;;;;;;;;;9.00;99.90;;;;;;8367674;28;20378;-71
2022/12/28 17:44:04;;;;;;;;;;;9.00;99.90;;;;;;8358482;28;19924;-72
2022/12/28 17:48:06;;;;;;;;;;;9.00;99.90;;;;;;8352011;28;19935;-71
2022/12/28 17:52:08;;;;;;;;;;;9.00;99.90;;;;;;8357994;28;19931;-72
2022/12/28 17:56:11;;;;;;;;;;;9.00;99.90;;;;;;8356299;28;20362;-71
2022/12/28 18:00:13;;;;;;;;;;;9.00;99.90;;;;;;8348103;28;19928;-71
2022/12/28 18:04:16;;;;;;;;;;;9.00;99.90;;;;;;8351491;28;20364;-72
2022/12/28 18:08:19;;;;;;;;;;;9.00;99.90;;;;;;8353929;28;19982;-72
2022/12/28 18:12:20;;;;;;;;;;;9.00;99.90;;;;;;8352766;28;20011;-72
2022/12/28 18:16:24;;;;;;;;;;;9.00;99.90;;;;;;8330666;28;20352;-71
2022/12/28 18:20:26;;;;;;;;;;;9.00;99.90;;;;;;8313092;28;19936;-72
2022/12/28 18:24:28;;;;;;;;;;;9.00;99.90;;;;;;8314287;28;20447;-72
2022/12/28 18:28:30;;;;;;;;;;;8.90;99.90;;;;;;8319692;28;19925;-71
2022/12/28 18:32:32;;;;;;;;;;;8.90;99.90;;;;;;8319178;28;20032;-72
2022/12/28 18:36:33;;;;;;;;;;;8.90;99.90;;;;;;8318752;28;19963;-72
2022/12/28 18:40:39;;;;;;;;;;;9.00;99.90;;;;;;8319286;28;20292;-72
2022/12/28 18:44:40;;;;;;;;;;;8.90;99.90;;;;;;8299129;28;20387;-72
2022/12/28 18:48:42;;;;;;;;;;;8.90;99.90;;;;;;8321074;28;20068;-72
2022/12/28 18:52:44;;;;;;;;;;;9.00;99.90;;;;;;8302041;28;19929;-72
2022/12/28 18:56:45;;;;;;;;;;;9.00;99.90;;;;;;8322806;28;19928;-72
2022/12/28 19:00:47;;;;;;;;;;;9.00;99.90;;;;;;8322607;28;19965;-72
2022/12/28 19:04:51;;;;;;;;;;;9.00;99.90;;;;;;8319599;28;19964;-72
2022/12/28 19:08:56;;;;;;;;;;;9.00;99.90;;;;;;8319230;28;19976;-72
2022/12/28 19:12:58;;;;;;;;;;;9.00;99.90;;;;;;8318142;28;19931;-71
2022/12/28 19:17:00;;;;;;;;;;;9.10;99.90;;;;;;8338116;28;19929;-72
2022/12/28 19:26:05;;;;;;;;;;;9.10;99.90;;;;;;8354781;28;19926;-72
2022/12/28 19:30:07;;;;;;;;;;;9.20;99.90;;;;;;8356055;28;20353;-72
2022/12/28 19:34:08;;;;;;;;;;;9.20;99.90;;;;;;8357955;28;19929;-72
2022/12/28 19:38:10;;;;;;;;;;;9.30;99.90;;;;;;8340842;28;19968;-71
2022/12/28 19:42:11;;;;;;;;;;;9.30;99.90;;;;;;8359396;28;19939;-72
2022/12/28 19:46:14;;;;;;;;;;;9.40;99.90;;;;;;8361570;28;20031;-71
2022/12/28 19:50:16;;;;;;;;;;;9.40;99.90;;;;;;8359672;28;19947;-71
2022/12/28 19:54:18;;;;;;;;;;;9.40;99.90;;;;;;8359906;28;20031;-71
2022/12/28 19:58:19;;;;;;;;;;;9.50;99.90;;;;;;8349713;28;19942;-71
2022/12/28 20:02:21;;;;;;;;;;;9.50;99.90;;;;;;8351698;28;20019;-71
2022/12/28 20:06:25;;;;;;;;;;;9.60;99.90;;;;;;8357542;28;19925;-71
2022/12/28 20:10:28;;;;;;;;;;;9.60;99.90;;;;;;8357542;28;19925;-71
2022/12/28 20:14:29;;;;;;;;;;;9.70;99.90;;;;;;8354615;28;20374;-72
2022/12/28 20:18:31;;;;;;;;;;;9.70;99.90;;;;;;8352846;28;19933;-71
2022/12/28 20:22:33;;;;;;;;;;;9.70;99.90;;;;;;8356147;28;19967;-71
2022/12/28 20:26:35;;;;;;;;;;;9.80;99.90;;;;;;8358435;28;20360;-72
2022/12/28 20:30:36;;;;;;;;;;;9.80;99.90;;;;;;8360652;28;20274;-72
2022/12/28 20:34:38;;;;;;;;;;;9.80;99.90;;;;;;8338906;28;19928;-72
2022/12/28 20:38:40;;;;;;;;;;;9.90;99.90;;;;;;8356606;28;20008;-71
2022/12/28 20:47:02;;;;;;;;;;;10.00;99.90;;;;;;8348999;28;20520;-71
2022/12/28 20:51:04;;;;;;;;;;;10.10;99.90;;;;;;8349868;28;20020;-71
2022/12/28 20:55:08;;;;;;;;;;;10.10;99.90;;;;;;8355982;28;20019;-72
2022/12/28 20:59:10;;;;;;;;;;;10.20;99.90;;;;;;8354680;28;19925;-71
2022/12/28 21:03:12;;;;;;;;;;;10.30;99.90;;;;;;8355853;28;19924;-72
2022/12/28 21:07:14;;;;;;;;;;;10.30;99.90;;;;;;8361660;28;20373;-72
2022/12/28 21:11:18;;;;;;;;;;;10.40;99.90;;;;;;8360493;28;20001;-72
2022/12/28 21:15:20;;;;;;;;;;;10.40;99.90;;;;;;8357235;28;19932;-72
2022/12/28 21:19:22;;;;;;;;;;;10.40;99.90;;;;;;8358120;28;20031;-71
2022/12/28 21:23:23;;;;;;;;;;;10.50;99.90;;;;;;8360777;28;20023;-71
2022/12/28 21:27:25;;;;;;;;;;;10.50;99.90;;;;;;8355837;28;19924;-71
2022/12/28 21:31:26;;;;;;;;;;;10.50;99.90;;;;;;8352398;28;19971;-71
2022/12/28 21:35:28;;;;;;;;;;;10.50;99.90;;;;;;8359281;28;19928;-72
2022/12/28 21:39:34;;;;;;;;;;;10.60;99.90;;;;;;8339870;28;19933;-72
2022/12/28 21:43:36;;;;;;;;;;;10.60;99.90;;;;;;8339415;28;19925;-72
2022/12/28 21:47:38;;;;;;;;;;;10.70;99.90;;;;;;8358772;28;19928;-72
2022/12/28 21:51:40;;;;;;;;;;;10.70;99.90;;;;;;8354262;28;20408;-72
2022/12/28 21:55:41;;;;;;;;;;;10.70;99.90;;;;;;8341004;28;19972;-71
2022/12/28 21:59:43;;;;;;;;;;;10.60;99.90;;;;;;8358672;28;20296;-71
2022/12/28 22:12:35;;;;;;;;;;;10.50;99.90;;;;;;8384445;28;20299;-72
2022/12/28 22:16:37;;;;;;;;;;;10.50;99.90;;;;;;8387836;28;20183;-72
2022/12/28 22:20:38;;;;;;;;;;;10.50;99.90;;;;;;8386517;28;19928;-71
2022/12/28 22:24:40;;;;;;;;;;;10.60;99.90;;;;;;8382511;28;19925;-72
2022/12/28 22:28:42;;;;;;;;;;;10.60;99.90;;;;;;8374741;28;19925;-72
2022/12/28 22:32:43;;;;;;;;;;;10.70;99.90;;;;;;8385787;28;20027;-72
2022/12/28 22:36:45;;;;;;;;;;;10.70;99.90;;;;;;8393595;28;20437;-71
2022/12/28 22:40:57;;;;;;;;;;;10.80;99.90;;;;;;8376725;28;19938;-71
2022/12/28 22:44:58;;;;;;;;;;;10.80;99.90;;;;;;8374232;28;19976;-72
2022/12/28 22:49:00;;;;;;;;;;;10.80;99.90;;;;;;8364175;28;19925;-71
2022/12/28 22:53:02;;;;;;;;;;;10.90;99.90;;;;;;8371663;28;19935;-71
2022/12/28 22:57:05;;;;;;;;;;;10.90;99.90;;;;;;8371267;28;20300;-72
2022/12/28 23:01:09;;;;;;;;;;;10.90;99.90;;;;;;8380345;28;19931;-72
2022/12/28 23:05:10;;;;;;;;;;;11.00;99.90;;;;;;8375112;28;19928;-72
2022/12/28 23:09:12;;;;;;;;;;;11.00;99.90;;;;;;8387920;28;19955;-72
2022/12/28 23:13:14;;;;;;;;;;;11.00;99.90;;;;;;8400637;28;19928;-72
2022/12/28 23:17:16;;;;;;;;;;;11.00;99.90;;;;;;8394713;28;19924;-71
2022/12/28 23:30:00;;;;;;;;;;;11.10;99.90;;;;;;8390571;28;20290;-72
2022/12/28 23:34:02;;;;;;;;;;;11.10;99.90;;;;;;8377586;28;19967;-72
2022/12/28 23:38:04;;;;;;;;;;;11.10;99.90;;;;;;8385006;28;19955;-72
2022/12/28 23:42:05;;;;;;;;;;;11.20;99.90;;;;;;8363356;28;19967;-71
2022/12/28 23:46:07;;;;;;;;;;;11.20;99.90;;;;;;8397385;28;19979;-72
2022/12/28 23:50:10;;;;;;;;;;;11.30;99.90;;;;;;8390161;28;19935;-72
2022/12/28 23:54:12;;;;;;;;;;;11.30;99.90;;;;;;8388688;28;19924;-72
2022/12/28 23:58:14;;;;;;;;;;;11.40;99.90;;;;;;8376247;28;20336;-72
